sensor_id;sensor_type;location;lat;lon;timestamp;P1;durP1;ratioP1;P2;durP2;ratioP2
39518;SDS011;25200;53.394;10.414;2023-05-09T00:01:53;4.10;;;1.95;;
39518;SDS011;25200;53.394;10.414;2023-05-09T00:04:19;4.95;;;2.10;;
39518;SDS011;25200;53.394;10.414;2023-05-09T00:06:45;4.50;;;2.13;;
39518;SDS011;25200;53.394;10.414;2023-05-09T00:09:11;5.57;;;2.40;;
39518;SDS011;25200;53.394;10.414;2023-05-09T00:11:37;5.88;;;2.30;;
39518;SDS011;25200;53.394;10.414;2023-05-09T00:14:02;3.92;;;2.10;;
39518;SDS011;25200;53.394;10.414;2023-05-09T00:16:28;6.72;;;2.15;;
39518;SDS011;25200;53.394;10.414;2023-05-09T00:18:57;6.07;;;2.38;;
39518;SDS011;25200;53.394;10.414;2023-05-09T00:21:22;4.68;;;2.20;;
39518;SDS011;25200;53.394;10.414;2023-05-09T00:23:48;8.52;;;2.22;;
39518;SDS011;25200;53.394;10.414;2023-05-09T00:26:14;5.43;;;2.45;;
39518;SDS011;25200;53.394;10.414;2023-05-09T00:28:40;5.85;;;2.15;;
39518;SDS011;25200;53.394;10.414;2023-05-09T00:31:05;8.18;;;2.63;;
39518;SDS011;25200;53.394;10.414;2023-05-09T00:33:31;4.60;;;2.15;;
39518;SDS011;25200;53.394;10.414;2023-05-09T00:35:57;4.68;;;2.17;;
39518;SDS011;25200;53.394;10.414;2023-05-09T00:38:22;5.68;;;2.33;;
39518;SDS011;25200;53.394;10.414;2023-05-09T00:40:48;5.32;;;2.13;;
39518;SDS011;25200;53.394;10.414;2023-05-09T00:43:14;4.18;;;2.13;;
39518;SDS011;25200;53.394;10.414;2023-05-09T00:45:40;7.20;;;2.15;;
39518;SDS011;25200;53.394;10.414;2023-05-09T00:48:07;7.35;;;2.30;;
39518;SDS011;25200;53.394;10.414;2023-05-09T00:50:32;4.40;;;2.20;;
39518;SDS011;25200;53.394;10.414;2023-05-09T00:52:58;5.03;;;2.40;;
39518;SDS011;25200;53.394;10.414;2023-05-09T00:55:24;4.40;;;2.20;;
39518;SDS011;25200;53.394;10.414;2023-05-09T00:57:51;5.32;;;2.40;;
39518;SDS011;25200;53.394;10.414;2023-05-09T01:00:16;5.00;;;2.30;;
39518;SDS011;25200;53.394;10.414;2023-05-09T01:02:43;7.60;;;2.55;;
39518;SDS011;25200;53.394;10.414;2023-05-09T01:05:11;6.63;;;2.42;;
39518;SDS011;25200;53.394;10.414;2023-05-09T01:10:38;4.97;;;2.40;;
39518;SDS011;25200;53.394;10.414;2023-05-09T01:13:40;5.63;;;2.40;;
39518;SDS011;25200;53.394;10.414;2023-05-09T01:16:18;5.07;;;2.60;;
39518;SDS011;25200;53.394;10.414;2023-05-09T01:19:09;4.22;;;2.30;;
39518;SDS011;25200;53.394;10.414;2023-05-09T01:21:51;4.45;;;2.47;;
39518;SDS011;25200;53.394;10.414;2023-05-09T01:29:47;6.75;;;2.75;;
39518;SDS011;25200;53.394;10.414;2023-05-09T01:32:22;4.70;;;2.40;;
39518;SDS011;25200;53.394;10.414;2023-05-09T01:34:51;4.82;;;2.22;;
39518;SDS011;25200;53.394;10.414;2023-05-09T01:37:21;5.25;;;2.45;;
39518;SDS011;25200;53.394;10.414;2023-05-09T01:39:50;4.45;;;2.25;;
39518;SDS011;25200;53.394;10.414;2023-05-09T01:42:20;5.90;;;2.50;;
39518;SDS011;25200;53.394;10.414;2023-05-09T01:44:49;5.05;;;2.58;;
39518;SDS011;25200;53.394;10.414;2023-05-09T01:47:17;6.82;;;2.55;;
39518;SDS011;25200;53.394;10.414;2023-05-09T01:49:43;6.03;;;3.00;;
39518;SDS011;25200;53.394;10.414;2023-05-09T01:52:10;6.72;;;2.88;;
39518;SDS011;25200;53.394;10.414;2023-05-09T01:54:39;7.38;;;2.70;;
39518;SDS011;25200;53.394;10.414;2023-05-09T01:57:06;5.55;;;2.53;;
39518;SDS011;25200;53.394;10.414;2023-05-09T01:59:33;7.38;;;2.70;;
39518;SDS011;25200;53.394;10.414;2023-05-09T02:02:02;7.40;;;2.70;;
39518;SDS011;25200;53.394;10.414;2023-05-09T02:04:28;6.35;;;2.30;;
39518;SDS011;25200;53.394;10.414;2023-05-09T02:06:55;6.10;;;2.55;;
39518;SDS011;25200;53.394;10.414;2023-05-09T02:09:22;7.07;;;3.10;;
39518;SDS011;25200;53.394;10.414;2023-05-09T02:11:48;7.60;;;2.80;;
39518;SDS011;25200;53.394;10.414;2023-05-09T02:14:14;5.82;;;2.83;;
39518;SDS011;25200;53.394;10.414;2023-05-09T02:16:40;8.73;;;3.00;;
39518;SDS011;25200;53.394;10.414;2023-05-09T02:19:06;8.77;;;2.92;;
39518;SDS011;25200;53.394;10.414;2023-05-09T02:21:31;6.90;;;3.10;;
39518;SDS011;25200;53.394;10.414;2023-05-09T02:23:57;5.78;;;2.95;;
39518;SDS011;25200;53.394;10.414;2023-05-09T02:26:23;6.85;;;2.80;;
39518;SDS011;25200;53.394;10.414;2023-05-09T02:28:50;4.63;;;2.60;;
39518;SDS011;25200;53.394;10.414;2023-05-09T02:31:18;4.80;;;2.70;;
39518;SDS011;25200;53.394;10.414;2023-05-09T02:33:46;6.00;;;2.97;;
39518;SDS011;25200;53.394;10.414;2023-05-09T02:36:15;5.80;;;2.90;;
39518;SDS011;25200;53.394;10.414;2023-05-09T02:38:41;6.30;;;2.70;;
39518;SDS011;25200;53.394;10.414;2023-05-09T02:41:11;6.18;;;3.03;;
39518;SDS011;25200;53.394;10.414;2023-05-09T02:43:40;4.95;;;2.78;;
39518;SDS011;25200;53.394;10.414;2023-05-09T02:46:06;5.90;;;3.05;;
39518;SDS011;25200;53.394;10.414;2023-05-09T02:48:33;6.13;;;2.70;;
39518;SDS011;25200;53.394;10.414;2023-05-09T02:50:59;4.85;;;2.80;;
39518;SDS011;25200;53.394;10.414;2023-05-09T02:53:25;6.40;;;2.97;;
39518;SDS011;25200;53.394;10.414;2023-05-09T02:55:51;5.63;;;3.03;;
39518;SDS011;25200;53.394;10.414;2023-05-09T02:58:17;6.05;;;3.10;;
39518;SDS011;25200;53.394;10.414;2023-05-09T03:00:43;7.10;;;3.15;;
39518;SDS011;25200;53.394;10.414;2023-05-09T03:03:09;7.57;;;3.13;;
39518;SDS011;25200;53.394;10.414;2023-05-09T03:05:35;6.47;;;3.45;;
39518;SDS011;25200;53.394;10.414;2023-05-09T03:08:01;6.80;;;3.10;;
39518;SDS011;25200;53.394;10.414;2023-05-09T03:10:26;7.72;;;2.90;;
39518;SDS011;25200;53.394;10.414;2023-05-09T03:12:52;5.80;;;2.97;;
39518;SDS011;25200;53.394;10.414;2023-05-09T03:15:18;5.40;;;2.88;;
39518;SDS011;25200;53.394;10.414;2023-05-09T03:17:45;6.32;;;3.20;;
39518;SDS011;25200;53.394;10.414;2023-05-09T03:20:10;7.40;;;3.15;;
39518;SDS011;25200;53.394;10.414;2023-05-09T03:22:36;6.88;;;3.40;;
39518;SDS011;25200;53.394;10.414;2023-05-09T03:25:02;9.27;;;3.00;;
39518;SDS011;25200;53.394;10.414;2023-05-09T03:27:28;5.75;;;3.10;;
39518;SDS011;25200;53.394;10.414;2023-05-09T03:29:54;6.50;;;3.20;;
39518;SDS011;25200;53.394;10.414;2023-05-09T03:32:20;5.72;;;3.28;;
39518;SDS011;25200;53.394;10.414;2023-05-09T03:34:45;7.30;;;3.35;;
39518;SDS011;25200;53.394;10.414;2023-05-09T03:37:11;6.00;;;3.05;;
39518;SDS011;25200;53.394;10.414;2023-05-09T03:39:37;6.00;;;3.45;;
39518;SDS011;25200;53.394;10.414;2023-05-09T03:42:02;6.25;;;3.30;;
39518;SDS011;25200;53.394;10.414;2023-05-09T03:44:28;7.22;;;3.30;;
39518;SDS011;25200;53.394;10.414;2023-05-09T03:46:54;7.70;;;3.50;;
39518;SDS011;25200;53.394;10.414;2023-05-09T03:49:19;6.57;;;3.50;;
39518;SDS011;25200;53.394;10.414;2023-05-09T03:51:45;7.10;;;3.70;;
39518;SDS011;25200;53.394;10.414;2023-05-09T03:54:10;5.30;;;3.03;;
39518;SDS011;25200;53.394;10.414;2023-05-09T03:56:36;5.65;;;3.25;;
39518;SDS011;25200;53.394;10.414;2023-05-09T03:59:01;6.05;;;3.10;;
39518;SDS011;25200;53.394;10.414;2023-05-09T04:01:27;5.90;;;3.25;;
39518;SDS011;25200;53.394;10.414;2023-05-09T04:03:53;6.97;;;3.22;;
39518;SDS011;25200;53.394;10.414;2023-05-09T04:06:21;9.73;;;3.88;;
39518;SDS011;25200;53.394;10.414;2023-05-09T04:08:47;7.65;;;3.90;;
39518;SDS011;25200;53.394;10.414;2023-05-09T04:11:12;6.50;;;3.50;;
39518;SDS011;25200;53.394;10.414;2023-05-09T04:13:38;7.03;;;3.42;;
39518;SDS011;25200;53.394;10.414;2023-05-09T04:16:03;8.48;;;3.70;;
39518;SDS011;25200;53.394;10.414;2023-05-09T04:18:29;8.05;;;3.70;;
39518;SDS011;25200;53.394;10.414;2023-05-09T04:20:55;6.93;;;3.60;;
39518;SDS011;25200;53.394;10.414;2023-05-09T04:23:20;7.70;;;3.58;;
39518;SDS011;25200;53.394;10.414;2023-05-09T04:25:46;6.82;;;3.30;;
39518;SDS011;25200;53.394;10.414;2023-05-09T04:28:15;8.38;;;4.00;;
39518;SDS011;25200;53.394;10.414;2023-05-09T04:30:40;6.95;;;3.35;;
39518;SDS011;25200;53.394;10.414;2023-05-09T04:33:06;5.50;;;3.03;;
39518;SDS011;25200;53.394;10.414;2023-05-09T04:35:32;7.35;;;3.40;;
39518;SDS011;25200;53.394;10.414;2023-05-09T04:37:57;6.57;;;3.50;;
39518;SDS011;25200;53.394;10.414;2023-05-09T04:40:23;7.55;;;3.75;;
39518;SDS011;25200;53.394;10.414;2023-05-09T04:42:48;7.25;;;3.38;;
39518;SDS011;25200;53.394;10.414;2023-05-09T04:45:14;5.80;;;3.45;;
39518;SDS011;25200;53.394;10.414;2023-05-09T04:47:40;6.75;;;3.35;;
39518;SDS011;25200;53.394;10.414;2023-05-09T04:50:05;7.22;;;3.55;;
39518;SDS011;25200;53.394;10.414;2023-05-09T04:52:32;6.28;;;3.70;;
39518;SDS011;25200;53.394;10.414;2023-05-09T04:54:57;6.00;;;3.10;;
39518;SDS011;25200;53.394;10.414;2023-05-09T04:57:23;6.65;;;3.83;;
39518;SDS011;25200;53.394;10.414;2023-05-09T04:59:48;6.72;;;3.60;;
39518;SDS011;25200;53.394;10.414;2023-05-09T05:02:14;6.88;;;3.38;;
39518;SDS011;25200;53.394;10.414;2023-05-09T05:04:40;8.10;;;3.67;;
39518;SDS011;25200;53.394;10.414;2023-05-09T05:07:05;5.95;;;3.33;;
39518;SDS011;25200;53.394;10.414;2023-05-09T05:09:31;9.20;;;4.03;;
39518;SDS011;25200;53.394;10.414;2023-05-09T05:12:05;9.07;;;3.58;;
39518;SDS011;25200;53.394;10.414;2023-05-09T05:14:32;7.35;;;3.58;;
39518;SDS011;25200;53.394;10.414;2023-05-09T05:16:58;8.27;;;3.70;;
39518;SDS011;25200;53.394;10.414;2023-05-09T05:19:24;8.77;;;3.28;;
39518;SDS011;25200;53.394;10.414;2023-05-09T05:21:49;8.68;;;3.70;;
39518;SDS011;25200;53.394;10.414;2023-05-09T05:24:15;8.32;;;3.30;;
39518;SDS011;25200;53.394;10.414;2023-05-09T05:26:40;5.50;;;3.25;;
39518;SDS011;25200;53.394;10.414;2023-05-09T05:29:06;7.13;;;3.72;;
39518;SDS011;25200;53.394;10.414;2023-05-09T05:31:31;7.05;;;3.47;;
39518;SDS011;25200;53.394;10.414;2023-05-09T05:33:57;6.80;;;3.10;;
39518;SDS011;25200;53.394;10.414;2023-05-09T05:36:23;6.38;;;3.55;;
39518;SDS011;25200;53.394;10.414;2023-05-09T05:38:48;7.82;;;4.20;;
39518;SDS011;25200;53.394;10.414;2023-05-09T05:41:14;6.10;;;3.42;;
39518;SDS011;25200;53.394;10.414;2023-05-09T05:43:39;6.10;;;3.42;;
39518;SDS011;25200;53.394;10.414;2023-05-09T05:46:05;6.53;;;3.47;;
39518;SDS011;25200;53.394;10.414;2023-05-09T05:48:31;8.13;;;3.70;;
39518;SDS011;25200;53.394;10.414;2023-05-09T05:50:56;7.18;;;3.90;;
39518;SDS011;25200;53.394;10.414;2023-05-09T05:53:22;9.27;;;3.92;;
39518;SDS011;25200;53.394;10.414;2023-05-09T05:55:47;6.95;;;3.22;;
39518;SDS011;25200;53.394;10.414;2023-05-09T05:58:13;9.18;;;3.85;;
39518;SDS011;25200;53.394;10.414;2023-05-09T06:00:39;6.03;;;3.50;;
39518;SDS011;25200;53.394;10.414;2023-05-09T06:03:05;6.95;;;3.78;;
39518;SDS011;25200;53.394;10.414;2023-05-09T06:05:30;8.88;;;3.47;;
39518;SDS011;25200;53.394;10.414;2023-05-09T06:07:56;7.57;;;3.53;;
39518;SDS011;25200;53.394;10.414;2023-05-09T06:10:22;6.97;;;3.60;;
39518;SDS011;25200;53.394;10.414;2023-05-09T06:12:47;6.22;;;3.45;;
39518;SDS011;25200;53.394;10.414;2023-05-09T06:15:13;6.07;;;3.45;;
39518;SDS011;25200;53.394;10.414;2023-05-09T06:17:39;11.15;;;3.60;;
39518;SDS011;25200;53.394;10.414;2023-05-09T06:20:05;5.20;;;2.88;;
39518;SDS011;25200;53.394;10.414;2023-05-09T06:22:31;7.50;;;3.65;;
39518;SDS011;25200;53.394;10.414;2023-05-09T06:24:57;6.18;;;3.33;;
39518;SDS011;25200;53.394;10.414;2023-05-09T06:27:22;7.80;;;3.80;;
39518;SDS011;25200;53.394;10.414;2023-05-09T06:29:48;6.75;;;3.53;;
39518;SDS011;25200;53.394;10.414;2023-05-09T06:32:14;6.95;;;3.30;;
39518;SDS011;25200;53.394;10.414;2023-05-09T06:34:39;5.93;;;3.17;;
39518;SDS011;25200;53.394;10.414;2023-05-09T06:37:06;11.98;;;3.22;;
39518;SDS011;25200;53.394;10.414;2023-05-09T06:39:32;6.65;;;3.17;;
39518;SDS011;25200;53.394;10.414;2023-05-09T06:41:58;6.57;;;3.30;;
39518;SDS011;25200;53.394;10.414;2023-05-09T06:44:23;6.80;;;3.30;;
39518;SDS011;25200;53.394;10.414;2023-05-09T06:46:49;7.43;;;3.58;;
39518;SDS011;25200;53.394;10.414;2023-05-09T06:49:15;6.55;;;3.45;;
39518;SDS011;25200;53.394;10.414;2023-05-09T06:51:40;6.22;;;3.40;;
39518;SDS011;25200;53.394;10.414;2023-05-09T06:54:09;6.28;;;3.10;;
39518;SDS011;25200;53.394;10.414;2023-05-09T06:56:35;6.13;;;3.08;;
39518;SDS011;25200;53.394;10.414;2023-05-09T06:59:00;5.68;;;3.00;;
39518;SDS011;25200;53.394;10.414;2023-05-09T07:01:26;5.03;;;2.70;;
39518;SDS011;25200;53.394;10.414;2023-05-09T07:03:52;6.05;;;2.97;;
39518;SDS011;25200;53.394;10.414;2023-05-09T07:06:17;5.78;;;3.00;;
39518;SDS011;25200;53.394;10.414;2023-05-09T07:08:43;7.25;;;3.20;;
39518;SDS011;25200;53.394;10.414;2023-05-09T07:11:08;6.35;;;3.17;;
39518;SDS011;25200;53.394;10.414;2023-05-09T07:13:34;7.18;;;3.28;;
39518;SDS011;25200;53.394;10.414;2023-05-09T07:16:00;6.95;;;2.83;;
39518;SDS011;25200;53.394;10.414;2023-05-09T07:18:26;6.38;;;3.13;;
39518;SDS011;25200;53.394;10.414;2023-05-09T07:20:51;5.97;;;2.90;;
39518;SDS011;25200;53.394;10.414;2023-05-09T07:23:17;5.55;;;2.55;;
39518;SDS011;25200;53.394;10.414;2023-05-09T07:25:43;5.97;;;3.03;;
39518;SDS011;25200;53.394;10.414;2023-05-09T07:28:09;7.20;;;3.20;;
39518;SDS011;25200;53.394;10.414;2023-05-09T07:30:36;6.53;;;3.00;;
39518;SDS011;25200;53.394;10.414;2023-05-09T07:33:02;5.20;;;2.80;;
39518;SDS011;25200;53.394;10.414;2023-05-09T07:35:27;6.00;;;3.33;;
39518;SDS011;25200;53.394;10.414;2023-05-09T07:37:53;6.15;;;2.70;;
39518;SDS011;25200;53.394;10.414;2023-05-09T07:40:19;5.70;;;2.80;;
39518;SDS011;25200;53.394;10.414;2023-05-09T07:42:44;5.68;;;3.05;;
39518;SDS011;25200;53.394;10.414;2023-05-09T07:45:13;5.20;;;2.60;;
39518;SDS011;25200;53.394;10.414;2023-05-09T07:47:39;6.18;;;2.90;;
39518;SDS011;25200;53.394;10.414;2023-05-09T07:50:05;6.35;;;2.60;;
39518;SDS011;25200;53.394;10.414;2023-05-09T07:52:48;4.85;;;2.60;;
39518;SDS011;25200;53.394;10.414;2023-05-09T07:55:13;5.60;;;2.55;;
39518;SDS011;25200;53.394;10.414;2023-05-09T07:57:39;5.88;;;2.72;;
39518;SDS011;25200;53.394;10.414;2023-05-09T08:00:05;5.75;;;2.70;;
39518;SDS011;25200;53.394;10.414;2023-05-09T08:02:32;8.52;;;2.63;;
39518;SDS011;25200;53.394;10.414;2023-05-09T08:04:58;5.20;;;2.60;;
39518;SDS011;25200;53.394;10.414;2023-05-09T08:07:24;4.75;;;2.30;;
39518;SDS011;25200;53.394;10.414;2023-05-09T08:09:50;5.28;;;2.47;;
39518;SDS011;25200;53.394;10.414;2023-05-09T08:12:15;6.10;;;3.00;;
39518;SDS011;25200;53.394;10.414;2023-05-09T08:14:41;6.30;;;3.28;;
39518;SDS011;25200;53.394;10.414;2023-05-09T08:17:06;5.22;;;2.70;;
39518;SDS011;25200;53.394;10.414;2023-05-09T08:19:32;6.03;;;2.78;;
39518;SDS011;25200;53.394;10.414;2023-05-09T08:21:57;7.45;;;2.63;;
39518;SDS011;25200;53.394;10.414;2023-05-09T08:24:24;5.90;;;2.72;;
39518;SDS011;25200;53.394;10.414;2023-05-09T08:26:50;5.30;;;2.70;;
39518;SDS011;25200;53.394;10.414;2023-05-09T08:29:15;6.63;;;2.65;;
39518;SDS011;25200;53.394;10.414;2023-05-09T08:31:41;7.35;;;2.53;;
39518;SDS011;25200;53.394;10.414;2023-05-09T08:34:07;5.28;;;2.42;;
39518;SDS011;25200;53.394;10.414;2023-05-09T08:36:33;8.98;;;2.67;;
39518;SDS011;25200;53.394;10.414;2023-05-09T08:38:58;5.75;;;2.60;;
39518;SDS011;25200;53.394;10.414;2023-05-09T08:41:24;5.60;;;2.90;;
39518;SDS011;25200;53.394;10.414;2023-05-09T08:43:53;4.15;;;2.25;;
39518;SDS011;25200;53.394;10.414;2023-05-09T08:46:27;5.32;;;2.45;;
39518;SDS011;25200;53.394;10.414;2023-05-09T08:48:59;5.22;;;2.55;;
39518;SDS011;25200;53.394;10.414;2023-05-09T08:51:25;4.88;;;2.35;;
39518;SDS011;25200;53.394;10.414;2023-05-09T08:53:53;5.03;;;2.45;;
39518;SDS011;25200;53.394;10.414;2023-05-09T08:56:18;6.38;;;2.50;;
39518;SDS011;25200;53.394;10.414;2023-05-09T08:58:45;4.53;;;2.30;;
39518;SDS011;25200;53.394;10.414;2023-05-09T09:01:11;7.75;;;2.60;;
39518;SDS011;25200;53.394;10.414;2023-05-09T09:03:38;4.57;;;2.30;;
39518;SDS011;25200;53.394;10.414;2023-05-09T09:06:05;5.43;;;2.30;;
39518;SDS011;25200;53.394;10.414;2023-05-09T09:08:33;5.20;;;2.28;;
39518;SDS011;25200;53.394;10.414;2023-05-09T09:10:59;4.45;;;2.08;;
39518;SDS011;25200;53.394;10.414;2023-05-09T09:13:26;6.43;;;2.38;;
39518;SDS011;25200;53.394;10.414;2023-05-09T09:15:52;5.22;;;2.30;;
39518;SDS011;25200;53.394;10.414;2023-05-09T09:18:27;4.22;;;2.33;;
39518;SDS011;25200;53.394;10.414;2023-05-09T09:20:58;5.93;;;2.50;;
39518;SDS011;25200;53.394;10.414;2023-05-09T09:25:57;6.95;;;2.35;;
39518;SDS011;25200;53.394;10.414;2023-05-09T09:28:25;5.85;;;2.65;;
39518;SDS011;25200;53.394;10.414;2023-05-09T09:30:51;5.38;;;2.60;;
39518;SDS011;25200;53.394;10.414;2023-05-09T09:33:20;5.72;;;2.35;;
39518;SDS011;25200;53.394;10.414;2023-05-09T09:35:47;6.22;;;2.50;;
39518;SDS011;25200;53.394;10.414;2023-05-09T09:38:14;5.13;;;2.60;;
39518;SDS011;25200;53.394;10.414;2023-05-09T09:40:48;5.97;;;2.50;;
39518;SDS011;25200;53.394;10.414;2023-05-09T09:43:27;6.22;;;2.70;;
39518;SDS011;25200;53.394;10.414;2023-05-09T09:45:53;7.28;;;2.30;;
39518;SDS011;25200;53.394;10.414;2023-05-09T09:48:25;6.30;;;2.40;;
39518;SDS011;25200;53.394;10.414;2023-05-09T09:50:54;4.68;;;2.38;;
39518;SDS011;25200;53.394;10.414;2023-05-09T09:53:25;5.07;;;2.30;;
39518;SDS011;25200;53.394;10.414;2023-05-09T09:55:54;3.97;;;2.17;;
39518;SDS011;25200;53.394;10.414;2023-05-09T09:58:19;7.95;;;2.55;;
39518;SDS011;25200;53.394;10.414;2023-05-09T10:01:07;5.45;;;2.10;;
39518;SDS011;25200;53.394;10.414;2023-05-09T10:03:34;6.28;;;2.42;;
39518;SDS011;25200;53.394;10.414;2023-05-09T10:06:04;4.00;;;2.00;;
39518;SDS011;25200;53.394;10.414;2023-05-09T10:08:34;4.55;;;2.20;;
39518;SDS011;25200;53.394;10.414;2023-05-09T10:10:59;4.70;;;2.17;;
39518;SDS011;25200;53.394;10.414;2023-05-09T10:13:25;5.10;;;2.28;;
39518;SDS011;25200;53.394;10.414;2023-05-09T10:15:53;4.22;;;2.08;;
39518;SDS011;25200;53.394;10.414;2023-05-09T10:18:23;5.07;;;2.15;;
39518;SDS011;25200;53.394;10.414;2023-05-09T10:20:52;5.50;;;2.22;;
39518;SDS011;25200;53.394;10.414;2023-05-09T10:23:19;6.18;;;2.25;;
39518;SDS011;25200;53.394;10.414;2023-05-09T10:25:50;4.10;;;2.00;;
39518;SDS011;25200;53.394;10.414;2023-05-09T10:28:22;6.22;;;2.30;;
39518;SDS011;25200;53.394;10.414;2023-05-09T10:33:30;4.40;;;2.60;;
39518;SDS011;25200;53.394;10.414;2023-05-09T10:36:02;5.63;;;2.30;;
39518;SDS011;25200;53.394;10.414;2023-05-09T10:38:30;5.93;;;2.13;;
39518;SDS011;25200;53.394;10.414;2023-05-09T10:40:56;6.90;;;2.42;;
39518;SDS011;25200;53.394;10.414;2023-05-09T10:43:22;4.18;;;1.98;;
39518;SDS011;25200;53.394;10.414;2023-05-09T10:45:49;5.22;;;2.50;;
39518;SDS011;25200;53.394;10.414;2023-05-09T10:48:15;5.70;;;2.10;;
39518;SDS011;25200;53.394;10.414;2023-05-09T10:50:42;8.18;;;2.30;;
39518;SDS011;25200;53.394;10.414;2023-05-09T10:53:09;4.75;;;2.20;;
39518;SDS011;25200;53.394;10.414;2023-05-09T11:00:50;4.60;;;2.10;;
39518;SDS011;25200;53.394;10.414;2023-05-09T11:03:17;5.85;;;2.10;;
39518;SDS011;25200;53.394;10.414;2023-05-09T11:05:44;4.43;;;2.00;;
39518;SDS011;25200;53.394;10.414;2023-05-09T11:08:18;4.00;;;2.22;;
39518;SDS011;25200;53.394;10.414;2023-05-09T11:10:45;4.70;;;2.10;;
39518;SDS011;25200;53.394;10.414;2023-05-09T11:13:10;4.88;;;2.45;;
39518;SDS011;25200;53.394;10.414;2023-05-09T11:15:48;3.55;;;1.90;;
39518;SDS011;25200;53.394;10.414;2023-05-09T11:18:14;7.43;;;2.20;;
39518;SDS011;25200;53.394;10.414;2023-05-09T11:20:41;4.65;;;2.25;;
39518;SDS011;25200;53.394;10.414;2023-05-09T11:23:08;4.80;;;2.08;;
39518;SDS011;25200;53.394;10.414;2023-05-09T11:25:39;4.03;;;2.20;;
39518;SDS011;25200;53.394;10.414;2023-05-09T11:28:06;5.95;;;2.20;;
39518;SDS011;25200;53.394;10.414;2023-05-09T11:30:38;4.47;;;1.90;;
39518;SDS011;25200;53.394;10.414;2023-05-09T11:35:44;4.25;;;2.00;;
39518;SDS011;25200;53.394;10.414;2023-05-09T11:38:10;5.80;;;2.22;;
39518;SDS011;25200;53.394;10.414;2023-05-09T11:40:45;6.40;;;2.15;;
39518;SDS011;25200;53.394;10.414;2023-05-09T11:43:11;6.18;;;2.28;;
39518;SDS011;25200;53.394;10.414;2023-05-09T11:45:37;4.38;;;2.13;;
39518;SDS011;25200;53.394;10.414;2023-05-09T11:48:07;7.25;;;2.35;;
39518;SDS011;25200;53.394;10.414;2023-05-09T11:50:33;4.93;;;2.30;;
39518;SDS011;25200;53.394;10.414;2023-05-09T11:52:58;4.70;;;2.20;;
39518;SDS011;25200;53.394;10.414;2023-05-09T11:55:24;6.10;;;2.20;;
39518;SDS011;25200;53.394;10.414;2023-05-09T11:57:53;4.72;;;2.25;;
39518;SDS011;25200;53.394;10.414;2023-05-09T12:00:20;4.45;;;2.17;;
39518;SDS011;25200;53.394;10.414;2023-05-09T12:02:47;4.82;;;2.20;;
39518;SDS011;25200;53.394;10.414;2023-05-09T12:05:14;6.57;;;2.40;;
39518;SDS011;25200;53.394;10.414;2023-05-09T12:07:42;7.95;;;2.38;;
39518;SDS011;25200;53.394;10.414;2023-05-09T12:10:09;5.18;;;2.45;;
39518;SDS011;25200;53.394;10.414;2023-05-09T12:12:46;5.38;;;2.20;;
39518;SDS011;25200;53.394;10.414;2023-05-09T12:15:13;4.60;;;2.20;;
39518;SDS011;25200;53.394;10.414;2023-05-09T12:17:41;4.20;;;2.20;;
39518;SDS011;25200;53.394;10.414;2023-05-09T12:20:09;4.93;;;2.20;;
39518;SDS011;25200;53.394;10.414;2023-05-09T12:22:35;5.45;;;2.25;;
39518;SDS011;25200;53.394;10.414;2023-05-09T12:25:04;7.15;;;2.10;;
39518;SDS011;25200;53.394;10.414;2023-05-09T12:27:36;5.82;;;2.30;;
39518;SDS011;25200;53.394;10.414;2023-05-09T12:30:03;4.00;;;2.13;;
39518;SDS011;25200;53.394;10.414;2023-05-09T12:32:34;7.22;;;2.42;;
39518;SDS011;25200;53.394;10.414;2023-05-09T12:35:03;4.57;;;2.28;;
39518;SDS011;25200;53.394;10.414;2023-05-09T12:37:29;4.85;;;2.17;;
39518;SDS011;25200;53.394;10.414;2023-05-09T12:42:28;5.20;;;2.30;;
39518;SDS011;25200;53.394;10.414;2023-05-09T12:44:55;5.68;;;2.28;;
39518;SDS011;25200;53.394;10.414;2023-05-09T12:47:21;4.65;;;2.10;;
39518;SDS011;25200;53.394;10.414;2023-05-09T12:49:50;4.60;;;2.00;;
39518;SDS011;25200;53.394;10.414;2023-05-09T12:52:16;5.72;;;2.30;;
39518;SDS011;25200;53.394;10.414;2023-05-09T12:54:44;5.15;;;2.25;;
39518;SDS011;25200;53.394;10.414;2023-05-09T12:57:19;6.22;;;2.30;;
39518;SDS011;25200;53.394;10.414;2023-05-09T12:59:49;5.03;;;2.30;;
39518;SDS011;25200;53.394;10.414;2023-05-09T13:02:14;5.93;;;2.15;;
39518;SDS011;25200;53.394;10.414;2023-05-09T13:04:40;5.75;;;2.25;;
39518;SDS011;25200;53.394;10.414;2023-05-09T13:07:09;5.82;;;2.47;;
39518;SDS011;25200;53.394;10.414;2023-05-09T13:09:35;5.93;;;2.17;;
39518;SDS011;25200;53.394;10.414;2023-05-09T13:12:04;6.47;;;2.38;;
39518;SDS011;25200;53.394;10.414;2023-05-09T13:14:29;5.25;;;2.20;;
39518;SDS011;25200;53.394;10.414;2023-05-09T13:16:55;6.55;;;2.50;;
39518;SDS011;25200;53.394;10.414;2023-05-09T13:19:21;3.80;;;2.15;;
39518;SDS011;25200;53.394;10.414;2023-05-09T13:21:46;3.80;;;1.90;;
39518;SDS011;25200;53.394;10.414;2023-05-09T13:24:12;4.57;;;2.25;;
39518;SDS011;25200;53.394;10.414;2023-05-09T13:26:38;7.03;;;2.10;;
39518;SDS011;25200;53.394;10.414;2023-05-09T13:29:03;5.95;;;2.50;;
39518;SDS011;25200;53.394;10.414;2023-05-09T13:31:29;4.35;;;2.33;;
39518;SDS011;25200;53.394;10.414;2023-05-09T13:33:55;3.70;;;2.00;;
39518;SDS011;25200;53.394;10.414;2023-05-09T13:36:21;5.82;;;2.13;;
39518;SDS011;25200;53.394;10.414;2023-05-09T13:38:46;4.95;;;2.17;;
39518;SDS011;25200;53.394;10.414;2023-05-09T13:41:12;4.90;;;2.10;;
39518;SDS011;25200;53.394;10.414;2023-05-09T13:43:43;4.22;;;2.08;;
39518;SDS011;25200;53.394;10.414;2023-05-09T13:46:09;7.00;;;2.15;;
39518;SDS011;25200;53.394;10.414;2023-05-09T13:48:35;7.65;;;2.20;;
39518;SDS011;25200;53.394;10.414;2023-05-09T13:51:01;4.75;;;1.98;;
39518;SDS011;25200;53.394;10.414;2023-05-09T13:53:27;4.80;;;2.00;;
39518;SDS011;25200;53.394;10.414;2023-05-09T13:55:53;4.35;;;2.00;;
39518;SDS011;25200;53.394;10.414;2023-05-09T13:58:19;4.60;;;2.05;;
39518;SDS011;25200;53.394;10.414;2023-05-09T14:00:45;3.85;;;2.05;;
39518;SDS011;25200;53.394;10.414;2023-05-09T14:03:10;3.90;;;2.00;;
39518;SDS011;25200;53.394;10.414;2023-05-09T14:05:36;4.45;;;1.95;;
39518;SDS011;25200;53.394;10.414;2023-05-09T14:08:02;4.55;;;2.08;;
39518;SDS011;25200;53.394;10.414;2023-05-09T14:10:27;3.38;;;1.77;;
39518;SDS011;25200;53.394;10.414;2023-05-09T14:12:53;6.32;;;2.17;;
39518;SDS011;25200;53.394;10.414;2023-05-09T14:15:19;3.53;;;2.00;;
39518;SDS011;25200;53.394;10.414;2023-05-09T14:17:44;4.60;;;1.92;;
39518;SDS011;25200;53.394;10.414;2023-05-09T14:20:10;5.40;;;2.00;;
39518;SDS011;25200;53.394;10.414;2023-05-09T14:22:37;4.85;;;2.03;;
39518;SDS011;25200;53.394;10.414;2023-05-09T14:25:02;5.40;;;2.08;;
39518;SDS011;25200;53.394;10.414;2023-05-09T14:27:28;5.57;;;1.90;;
39518;SDS011;25200;53.394;10.414;2023-05-09T14:29:54;4.68;;;2.08;;
39518;SDS011;25200;53.394;10.414;2023-05-09T14:32:20;5.18;;;2.20;;
39518;SDS011;25200;53.394;10.414;2023-05-09T14:34:45;6.18;;;2.08;;
39518;SDS011;25200;53.394;10.414;2023-05-09T14:37:13;5.60;;;1.85;;
39518;SDS011;25200;53.394;10.414;2023-05-09T14:39:39;4.68;;;2.08;;
39518;SDS011;25200;53.394;10.414;2023-05-09T14:42:06;4.53;;;1.85;;
39518;SDS011;25200;53.394;10.414;2023-05-09T14:44:34;4.50;;;1.67;;
39518;SDS011;25200;53.394;10.414;2023-05-09T14:47:03;3.90;;;1.98;;
39518;SDS011;25200;53.394;10.414;2023-05-09T14:49:29;5.55;;;1.90;;
39518;SDS011;25200;53.394;10.414;2023-05-09T14:51:54;5.03;;;2.03;;
39518;SDS011;25200;53.394;10.414;2023-05-09T14:54:20;4.93;;;1.70;;
39518;SDS011;25200;53.394;10.414;2023-05-09T14:56:46;6.28;;;1.90;;